Time;durP1;ratioP1;P1;durP2;ratioP2;P2;SDS_P1;SDS_P2;PMS_P1;PMS_P2;Temp;Humidity;BMP_temperature;BMP_pressure;BME280_temperature;BME280_humidity;BME280_pressure;Samples;Min_cycle;Max_cycle;Signal;HPM_P1;HPM_P2
2021/11/18 00:01:28;;;;;;;28.27;12.23;;;6.70;99.90;;;;;;5072921;28;20195;-72
2021/11/18 00:03:56;;;;;;;29.83;11.73;;;6.60;99.90;;;;;;5072731;28;20209;-70
2021/11/18 00:06:24;;;;;;;24.00;12.23;;;6.60;99.90;;;;;;5071978;28;20287;-74
2021/11/18 00:08:51;;;;;;;29.97;11.00;;;6.70;99.90;;;;;;5071149;28;20568;-74
2021/11/18 00:11:22;;;;;;;26.77;11.23;;;6.70;99.90;;;;;;5071862;28;20210;-74
2021/11/18 00:13:51;;;;;;;21.77;9.77;;;6.70;99.90;;;;;;5072119;28;20264;-74
2021/11/18 00:16:18;;;;;;;25.47;10.23;;;6.70;99.90;;;;;;5071131;28;20198;-75
2021/11/18 00:18:46;;;;;;;27.97;10.97;;;6.60;99.90;;;;;;5072424;28;20198;-74
2021/11/18 00:21:16;;;;;;;27.10;11.93;;;6.60;99.90;;;;;;5071064;28;20560;-74
2021/11/18 00:23:45;;;;;;;25.17;10.43;;;6.60;99.90;;;;;;5068368;28;20206;-71
2021/11/18 00:26:13;;;;;;;27.37;10.93;;;6.60;99.90;;;;;;5071639;28;20222;-70
2021/11/18 00:28:42;;;;;;;25.73;11.37;;;6.60;99.90;;;;;;5071771;28;20264;-70
2021/11/18 00:31:10;;;;;;;32.70;11.57;;;6.70;99.90;;;;;;5070506;28;20716;-73
2021/11/18 00:33:38;;;;;;;31.80;11.93;;;6.80;99.90;;;;;;5071628;28;20644;-71
2021/11/18 00:36:07;;;;;;;27.17;11.20;;;6.70;99.90;;;;;;5071090;28;20214;-70
2021/11/18 00:38:36;;;;;;;24.50;11.23;;;6.70;99.90;;;;;;5070525;28;20221;-71
2021/11/18 00:41:04;;;;;;;28.63;11.60;;;6.70;99.90;;;;;;5071149;28;20198;-74
2021/11/18 00:43:31;;;;;;;29.90;11.47;;;6.70;99.90;;;;;;5071579;28;20648;-74
2021/11/18 00:45:59;;;;;;;28.70;11.20;;;6.70;99.90;;;;;;5070395;28;20222;-74
2021/11/18 00:48:27;;;;;;;29.00;11.13;;;6.70;99.90;;;;;;5071781;28;20210;-74
2021/11/18 00:50:56;;;;;;;27.33;12.17;;;6.60;99.90;;;;;;5070347;28;20228;-74
2021/11/18 00:53:24;;;;;;;32.83;11.57;;;6.60;99.90;;;;;;5070797;28;20202;-74
2021/11/18 00:55:52;;;;;;;30.87;12.77;;;6.60;99.90;;;;;;5071221;28;20251;-74
2021/11/18 00:58:19;;;;;;;28.90;11.20;;;6.60;99.90;;;;;;5073257;28;20236;-74
2021/11/18 01:00:49;;;;;;;31.43;12.63;;;6.70;99.90;;;;;;5072889;28;20640;-74
2021/11/18 01:03:21;;;;;;;31.43;12.67;;;6.70;99.90;;;;;;5071770;28;20210;-74
2021/11/18 01:05:50;;;;;;;27.10;12.50;;;6.70;99.90;;;;;;5069510;28;20283;-74
2021/11/18 01:08:17;;;;;;;27.20;12.63;;;6.70;99.90;;;;;;5071457;28;20206;-74
2021/11/18 01:10:47;;;;;;;29.07;13.40;;;6.80;99.90;;;;;;5073014;28;20202;-74
2021/11/18 01:13:15;;;;;;;32.07;13.57;;;6.90;99.90;;;;;;5088701;28;20262;-74
2021/11/18 01:15:44;;;;;;;32.20;13.73;;;7.00;99.90;;;;;;5072385;28;20252;-74
2021/11/18 01:18:12;;;;;;;30.20;13.43;;;7.00;99.90;;;;;;5071478;28;20193;-74
2021/11/18 01:20:42;;;;;;;29.53;13.13;;;7.00;99.90;;;;;;5069592;28;20230;-74
2021/11/18 01:23:12;;;;;;;27.40;12.93;;;7.00;99.90;;;;;;5071235;28;20234;-74
2021/11/18 01:25:39;;;;;;;33.13;14.47;;;7.00;99.90;;;;;;5071299;28;20236;-74
2021/11/18 01:28:08;;;;;;;33.23;13.10;;;7.00;99.90;;;;;;5069446;28;20889;-74
2021/11/18 01:30:36;;;;;;;28.93;12.67;;;7.00;99.90;;;;;;5070346;28;20252;-74
2021/11/18 01:33:05;;;;;;;30.57;13.53;;;7.00;99.90;;;;;;5069394;28;20218;-74
2021/11/18 01:35:33;;;;;;;27.63;12.63;;;7.10;99.90;;;;;;5071061;28;20256;-74
2021/11/18 01:38:02;;;;;;;28.93;11.73;;;7.10;99.90;;;;;;5070427;28;20198;-74
2021/11/18 01:40:32;;;;;;;28.43;12.83;;;7.00;99.90;;;;;;5070170;28;20226;-74
2021/11/18 01:43:00;;;;;;;30.37;14.03;;;7.10;99.90;;;;;;5070795;28;20263;-74
2021/11/18 01:45:29;;;;;;;25.20;11.60;;;7.10;99.90;;;;;;5070560;28;20226;-74
2021/11/18 01:47:56;;;;;;;22.67;11.30;;;7.10;99.90;;;;;;5064856;28;20545;-74
2021/11/18 01:50:26;;;;;;;28.43;11.77;;;7.10;99.90;;;;;;5074296;28;20202;-74
2021/11/18 01:52:55;;;;;;;28.47;11.63;;;7.10;99.90;;;;;;5077995;28;20210;-74
2021/11/18 01:55:25;;;;;;;28.87;13.13;;;7.10;99.90;;;;;;5076811;28;20194;-74
2021/11/18 01:57:53;;;;;;;26.57;10.87;;;7.10;99.90;;;;;;5076840;28;20293;-74
2021/11/18 02:00:24;;;;;;;30.07;12.37;;;7.00;99.90;;;;;;5077201;28;20202;-74
2021/11/18 02:02:52;;;;;;;36.37;13.07;;;7.00;99.90;;;;;;5077220;28;20198;-74
2021/11/18 02:05:21;;;;;;;29.27;11.17;;;7.00;99.90;;;;;;5077065;28;20214;-74
2021/11/18 02:07:49;;;;;;;26.40;11.23;;;7.00;99.90;;;;;;5075716;28;20255;-74
2021/11/18 02:10:17;;;;;;;26.37;11.13;;;7.00;99.90;;;;;;5076670;28;20205;-74
2021/11/18 02:12:46;;;;;;;23.93;10.70;;;7.00;99.90;;;;;;5070782;28;20255;-74
2021/11/18 02:15:21;;;;;;;28.97;11.90;;;7.00;99.90;;;;;;5075006;28;20569;-74
2021/11/18 02:17:48;;;;;;;26.27;11.33;;;7.00;99.90;;;;;;5077488;28;20586;-74
2021/11/18 02:20:24;;;;;;;24.70;11.47;;;7.00;99.90;;;;;;5077337;28;20255;-74
2021/11/18 02:22:52;;;;;;;27.90;11.43;;;7.00;99.90;;;;;;5075176;28;20503;-74
2021/11/18 02:25:24;;;;;;;30.23;11.07;;;7.10;99.90;;;;;;5077104;28;20652;-74
2021/11/18 02:27:51;;;;;;;26.83;11.27;;;7.00;99.90;;;;;;5077329;28;20198;-74
2021/11/18 02:30:18;;;;;;;26.50;10.97;;;7.10;99.90;;;;;;5077374;28;20202;-74
2021/11/18 02:32:45;;;;;;;31.27;11.83;;;7.10;99.90;;;;;;5075330;28;20260;-74
2021/11/18 02:35:17;;;;;;;26.77;10.73;;;7.10;99.90;;;;;;5077181;28;20255;-74
2021/11/18 02:37:45;;;;;;;24.33;10.20;;;7.10;99.90;;;;;;5075921;28;20713;-74
2021/11/18 02:40:14;;;;;;;30.00;12.17;;;7.10;99.90;;;;;;5076471;28;20259;-74
2021/11/18 02:42:43;;;;;;;31.57;10.97;;;7.10;99.90;;;;;;5076229;28;20668;-74
2021/11/18 02:45:12;;;;;;;29.03;11.90;;;7.20;99.90;;;;;;5075930;28;20583;-74
2021/11/18 02:47:40;;;;;;;30.33;12.37;;;7.20;99.90;;;;;;5076880;28;20225;-74
2021/11/18 02:50:09;;;;;;;27.93;11.97;;;7.20;99.90;;;;;;5077100;28;20194;-74
2021/11/18 02:52:36;;;;;;;28.60;11.17;;;7.10;99.90;;;;;;5076150;28;20206;-74
2021/11/18 02:55:08;;;;;;;27.67;10.60;;;7.10;99.90;;;;;;5076561;28;20267;-74
2021/11/18 02:57:36;;;;;;;24.20;10.70;;;7.00;99.90;;;;;;5076654;28;20210;-74
2021/11/18 03:00:07;;;;;;;24.03;10.80;;;7.00;99.90;;;;;;5077019;28;20259;-74
2021/11/18 03:02:34;;;;;;;26.47;12.07;;;6.90;99.90;;;;;;5072409;28;20210;-74
2021/11/18 03:05:01;;;;;;;30.13;11.50;;;6.80;99.90;;;;;;5073275;28;20243;-74
2021/11/18 03:07:28;;;;;;;27.50;11.07;;;6.80;99.90;;;;;;5072821;28;20279;-74
2021/11/18 03:09:55;;;;;;;28.60;11.37;;;6.80;99.90;;;;;;5073771;28;20275;-74
2021/11/18 03:12:24;;;;;;;26.13;11.33;;;6.80;99.90;;;;;;5072324;28;20198;-74
2021/11/18 03:14:51;;;;;;;26.73;11.23;;;6.80;99.90;;;;;;5073754;28;20593;-74
2021/11/18 03:17:19;;;;;;;26.57;11.47;;;6.80;99.90;;;;;;5072387;28;20206;-74
2021/11/18 03:19:46;;;;;;;28.13;12.97;;;6.80;99.90;;;;;;5073083;28;20210;-74
2021/11/18 03:22:13;;;;;;;25.57;12.43;;;6.90;99.90;;;;;;5072780;28;20561;-74
2021/11/18 03:24:40;;;;;;;28.23;12.07;;;7.00;99.90;;;;;;5073295;28;20643;-74
2021/11/18 03:27:07;;;;;;;25.23;10.83;;;7.10;99.90;;;;;;5073243;28;20747;-74
2021/11/18 03:29:36;;;;;;;26.80;11.83;;;7.10;99.90;;;;;;5053485;28;20207;-74
2021/11/18 03:32:03;;;;;;;28.23;12.57;;;7.20;99.90;;;;;;5061843;28;20279;-74
2021/11/18 03:34:32;;;;;;;29.17;12.20;;;7.30;99.90;;;;;;5072228;28;20203;-74
2021/11/18 03:36:59;;;;;;;30.27;12.67;;;7.40;99.90;;;;;;5072759;28;20248;-74
2021/11/18 03:39:27;;;;;;;28.37;12.53;;;7.40;99.90;;;;;;5071985;28;20249;-74
2021/11/18 03:41:59;;;;;;;28.40;12.17;;;7.40;99.90;;;;;;5072408;28;20210;-74
2021/11/18 03:44:26;;;;;;;32.93;12.17;;;7.40;99.90;;;;;;5072589;28;20210;-74
2021/11/18 03:46:59;;;;;;;34.40;13.53;;;7.40;99.90;;;;;;5072038;28;20217;-74
2021/11/18 03:49:26;;;;;;;29.40;11.77;;;7.50;99.90;;;;;;5072698;28;20202;-74
2021/11/18 03:51:56;;;;;;;28.53;11.70;;;7.40;99.90;;;;;;5072929;28;20236;-74
2021/11/18 03:54:26;;;;;;;25.70;11.33;;;7.50;99.90;;;;;;5072210;28;20191;-74
2021/11/18 03:56:53;;;;;;;29.60;12.47;;;7.50;99.90;;;;;;5072279;28;20202;-74
2021/11/18 03:59:23;;;;;;;27.77;11.40;;;7.40;99.90;;;;;;5071756;28;20202;-74
2021/11/18 04:01:52;;;;;;;29.87;11.13;;;7.40;99.90;;;;;;5072096;28;20207;-74
2021/11/18 04:04:23;;;;;;;27.73;11.73;;;7.30;99.90;;;;;;5072405;28;20198;-74
2021/11/18 04:06:51;;;;;;;28.73;11.33;;;7.30;99.90;;;;;;5071879;28;20229;-74
2021/11/18 04:09:18;;;;;;;26.40;12.43;;;7.20;99.90;;;;;;5071342;28;20198;-74
2021/11/18 04:11:48;;;;;;;25.67;11.77;;;7.40;99.90;;;;;;5070840;28;20202;-74
2021/11/18 04:14:16;;;;;;;29.30;12.47;;;7.40;99.90;;;;;;5071102;28;20240;-74
2021/11/18 04:16:43;;;;;;;35.63;13.70;;;7.50;99.90;;;;;;5072346;28;20279;-74
2021/11/18 04:19:11;;;;;;;27.07;11.70;;;7.60;99.90;;;;;;5072129;28;20252;-74
2021/11/18 04:21:42;;;;;;;30.63;14.00;;;7.60;99.90;;;;;;5071752;28;20199;-74
2021/11/18 04:24:12;;;;;;;31.50;12.77;;;7.60;99.90;;;;;;5056131;28;20195;-74
2021/11/18 04:26:41;;;;;;;27.43;12.73;;;7.70;99.90;;;;;;5071756;28;20284;-74
2021/11/18 04:29:09;;;;;;;25.90;13.20;;;7.70;99.90;;;;;;5071150;28;20230;-74
2021/11/18 04:31:36;;;;;;;27.43;13.60;;;7.70;99.90;;;;;;5070812;28;20276;-74
2021/11/18 04:34:03;;;;;;;34.00;13.60;;;7.70;99.90;;;;;;5070215;28;20195;-74
2021/11/18 04:36:30;;;;;;;27.73;12.90;;;7.80;99.90;;;;;;5069811;28;20255;-74
2021/11/18 04:38:59;;;;;;;27.70;13.50;;;7.70;99.90;;;;;;5071732;28;20198;-74
2021/11/18 04:41:29;;;;;;;30.23;13.47;;;7.70;99.90;;;;;;5070612;28;20619;-74
2021/11/18 04:43:57;;;;;;;28.67;12.60;;;7.70;99.90;;;;;;5071500;28;20209;-74
2021/11/18 04:46:24;;;;;;;27.20;12.37;;;7.70;99.90;;;;;;5070896;28;20267;-74
2021/11/18 04:48:51;;;;;;;28.53;12.73;;;7.60;99.90;;;;;;5072224;28;20206;-74
2021/11/18 04:51:21;;;;;;;31.50;13.63;;;7.50;99.90;;;;;;5070057;28;20194;-74
2021/11/18 04:53:48;;;;;;;29.90;13.23;;;7.60;99.90;;;;;;5071223;28;20217;-74
2021/11/18 04:56:17;;;;;;;30.33;13.97;;;7.50;99.90;;;;;;5070952;28;20203;-74
2021/11/18 04:58:44;;;;;;;31.57;14.37;;;7.50;99.90;;;;;;5057304;28;20203;-74
2021/11/18 05:01:14;;;;;;;28.87;13.63;;;7.60;99.90;;;;;;5071626;28;20534;-74
2021/11/18 05:03:42;;;;;;;29.23;15.00;;;7.60;99.90;;;;;;5064964;28;20206;-74
2021/11/18 05:06:10;;;;;;;31.60;15.33;;;7.60;99.90;;;;;;5064884;28;20534;-74
2021/11/18 05:08:37;;;;;;;31.57;15.23;;;7.60;99.90;;;;;;5064806;28;20238;-74
2021/11/18 05:11:05;;;;;;;30.80;14.70;;;7.60;99.90;;;;;;5073447;28;20586;-74
2021/11/18 05:13:34;;;;;;;31.40;15.57;;;7.60;99.90;;;;;;5089849;28;20206;-74
2021/11/18 05:16:04;;;;;;;37.40;15.90;;;7.70;99.90;;;;;;5072747;28;20721;-74
2021/11/18 05:18:32;;;;;;;35.60;14.67;;;7.70;99.90;;;;;;5071332;28;20206;-73
2021/11/18 05:20:59;;;;;;;39.33;17.27;;;7.70;99.90;;;;;;5070559;28;20534;-74
2021/11/18 05:23:27;;;;;;;37.03;15.83;;;7.80;99.90;;;;;;5071454;28;20202;-74
2021/11/18 05:25:54;;;;;;;34.83;17.13;;;7.80;99.90;;;;;;5070840;28;20214;-74
2021/11/18 05:28:21;;;;;;;36.30;17.03;;;7.80;99.90;;;;;;5071407;28;20275;-74
2021/11/18 05:30:51;;;;;;;36.27;16.77;;;7.80;99.90;;;;;;5069882;28;20198;-74
2021/11/18 05:33:20;;;;;;;28.93;16.07;;;7.80;99.90;;;;;;5070837;28;20550;-74
2021/11/18 05:35:49;;;;;;;34.53;18.00;;;7.80;99.90;;;;;;5071158;28;20195;-73
2021/11/18 05:38:16;;;;;;;34.30;16.33;;;7.80;99.90;;;;;;5070715;28;20206;-74
2021/11/18 05:40:44;;;;;;;34.10;16.80;;;7.80;99.90;;;;;;5070119;28;20331;-73
2021/11/18 05:43:12;;;;;;;31.50;15.40;;;7.80;99.90;;;;;;5069051;28;20242;-74
2021/11/18 05:45:39;;;;;;;38.37;18.10;;;7.80;99.90;;;;;;5070083;28;20202;-74
2021/11/18 05:48:09;;;;;;;33.40;18.50;;;7.80;99.90;;;;;;5071101;28;20315;-73
2021/11/18 05:50:40;;;;;;;33.03;17.93;;;7.70;99.90;;;;;;5070427;28;20256;-74
2021/11/18 05:53:07;;;;;;;42.80;19.10;;;7.70;99.90;;;;;;5071159;28;20210;-74
2021/11/18 05:55:36;;;;;;;35.50;18.63;;;7.70;99.90;;;;;;5070212;28;20197;-75
2021/11/18 05:58:04;;;;;;;37.00;19.00;;;7.70;99.90;;;;;;5070417;28;20561;-74
2021/11/18 06:00:32;;;;;;;32.27;18.93;;;7.70;99.90;;;;;;5064789;28;20257;-74
2021/11/18 06:03:00;;;;;;;32.77;18.50;;;7.70;99.90;;;;;;5071025;28;20234;-73
2021/11/18 06:05:29;;;;;;;37.07;19.90;;;7.70;99.90;;;;;;5069652;28;20688;-74
2021/11/18 06:07:56;;;;;;;35.30;19.63;;;7.80;99.90;;;;;;5070588;28;20226;-73
2021/11/18 06:10:26;;;;;;;34.10;18.83;;;7.70;99.90;;;;;;5069900;28;20610;-74
2021/11/18 06:12:53;;;;;;;36.80;19.67;;;7.70;99.90;;;;;;5070623;28;20252;-73
2021/11/18 06:15:20;;;;;;;39.57;20.47;;;7.80;99.90;;;;;;5069655;28;20199;-74
2021/11/18 06:17:48;;;;;;;39.03;19.90;;;7.70;99.90;;;;;;5070731;28;20238;-73
2021/11/18 06:20:16;;;;;;;37.50;19.70;;;7.70;99.90;;;;;;5070816;28;20648;-74
2021/11/18 06:22:46;;;;;;;38.63;20.17;;;7.70;99.90;;;;;;5070333;28;20206;-74
2021/11/18 06:25:16;;;;;;;37.60;18.50;;;7.80;99.90;;;;;;5070036;28;20202;-74
2021/11/18 06:27:45;;;;;;;34.97;18.33;;;7.70;99.90;;;;;;5070039;28;20715;-74
2021/11/18 06:30:14;;;;;;;40.40;18.07;;;7.80;99.90;;;;;;5070052;28;20241;-74
2021/11/18 06:32:41;;;;;;;36.70;20.07;;;7.80;99.90;;;;;;5069727;28;20702;-74
2021/11/18 06:35:09;;;;;;;44.53;20.07;;;7.80;99.90;;;;;;5069455;28;20252;-74
2021/11/18 06:37:36;;;;;;;40.27;20.07;;;7.80;99.90;;;;;;5072430;28;20210;-74
2021/11/18 06:40:07;;;;;;;36.63;20.13;;;7.80;99.90;;;;;;5073367;28;20202;-74
2021/11/18 06:42:34;;;;;;;37.53;20.93;;;7.80;99.90;;;;;;5072811;28;20194;-73
2021/11/18 06:45:01;;;;;;;39.37;20.80;;;7.80;99.90;;;;;;5074158;28;20238;-74
2021/11/18 06:47:28;;;;;;;37.13;20.20;;;7.80;99.90;;;;;;5073085;28;20295;-74
2021/11/18 06:49:55;;;;;;;38.83;20.40;;;7.80;99.90;;;;;;5074370;28;20202;-74
2021/11/18 06:52:22;;;;;;;34.80;19.87;;;7.90;99.90;;;;;;5073504;28;20210;-74
2021/11/18 06:54:49;;;;;;;39.23;20.53;;;7.90;99.90;;;;;;5073612;28;20555;-74
2021/11/18 06:57:18;;;;;;;41.60;21.37;;;7.90;99.90;;;;;;5072863;28;20664;-74
2021/11/18 06:59:45;;;;;;;37.27;19.77;;;8.00;99.90;;;;;;5073469;28;20205;-73
2021/11/18 07:02:13;;;;;;;37.73;21.03;;;8.00;99.90;;;;;;5072052;28;20238;-74
2021/11/18 07:04:43;;;;;;;35.23;19.20;;;7.90;99.90;;;;;;5073807;28;20256;-74
2021/11/18 07:07:10;;;;;;;39.13;20.93;;;8.00;99.90;;;;;;5072639;28;20307;-73
2021/11/18 07:09:37;;;;;;;37.50;21.07;;;8.00;99.90;;;;;;5062866;28;20210;-73
2021/11/18 07:12:06;;;;;;;36.07;19.67;;;8.00;99.90;;;;;;5073861;28;20216;-74
2021/11/18 07:14:35;;;;;;;42.47;20.60;;;8.00;99.90;;;;;;5073233;28;20232;-73
2021/11/18 07:17:04;;;;;;;41.70;21.90;;;8.00;99.90;;;;;;5073291;28;20198;-74
2021/11/18 07:19:31;;;;;;;39.83;21.37;;;8.10;99.90;;;;;;5073752;28;20722;-73
2021/11/18 07:21:59;;;;;;;39.23;21.43;;;8.10;99.90;;;;;;5071994;28;20199;-73
2021/11/18 07:24:26;;;;;;;38.57;22.70;;;8.10;99.90;;;;;;5072410;28;20609;-74
2021/11/18 07:26:53;;;;;;;38.00;22.13;;;8.10;99.90;;;;;;5072879;28;20198;-73
2021/11/18 07:29:22;;;;;;;38.97;22.47;;;8.10;99.90;;;;;;5072854;28;20248;-74
2021/11/18 07:31:51;;;;;;;36.27;21.40;;;8.20;99.90;;;;;;5072805;28;20246;-74
2021/11/18 07:34:18;;;;;;;48.57;24.70;;;8.20;99.90;;;;;;5073518;28;20206;-73
2021/11/18 07:36:47;;;;;;;40.10;23.00;;;8.20;99.90;;;;;;5071633;28;20252;-73
2021/11/18 07:39:18;;;;;;;46.17;24.97;;;8.20;99.90;;;;;;5073404;28;20637;-81
2021/11/18 07:41:45;;;;;;;43.03;23.47;;;8.30;99.90;;;;;;5073038;28;20495;-77
2021/11/18 07:44:14;;;;;;;40.70;22.57;;;8.30;99.90;;;;;;5073546;28;20542;-75
2021/11/18 07:46:42;;;;;;;46.70;23.90;;;8.30;99.90;;;;;;5071803;28;20952;-74
2021/11/18 07:49:10;;;;;;;43.57;24.27;;;8.30;99.90;;;;;;5072736;28;20222;-74
2021/11/18 07:51:38;;;;;;;42.47;22.73;;;8.40;99.90;;;;;;5071804;28;20251;-74
2021/11/18 07:54:06;;;;;;;42.47;23.83;;;8.40;99.90;;;;;;5073209;28;20691;-73
2021/11/18 07:56:33;;;;;;;39.03;21.70;;;8.40;99.90;;;;;;5073004;28;20230;-73
2021/11/18 07:59:00;;;;;;;44.67;22.47;;;8.40;99.90;;;;;;5073003;28;20677;-73
2021/11/18 08:01:27;;;;;;;39.50;21.77;;;8.50;99.90;;;;;;5071191;28;20236;-74
2021/11/18 08:03:54;;;;;;;44.10;22.23;;;8.50;99.90;;;;;;5066258;28;20252;-73
2021/11/18 08:06:25;;;;;;;44.63;23.80;;;8.50;99.90;;;;;;5063206;28;20256;-73
2021/11/18 08:08:52;;;;;;;38.67;21.97;;;8.60;99.90;;;;;;5065424;28;20218;-73
2021/11/18 08:11:22;;;;;;;42.97;24.03;;;8.60;99.90;;;;;;5054921;28;20206;-73
2021/11/18 08:13:50;;;;;;;43.13;22.77;;;8.60;99.90;;;;;;5066893;28;20238;-74
2021/11/18 08:16:18;;;;;;;44.73;22.93;;;8.60;99.90;;;;;;5063458;28;20199;-73
2021/11/18 08:18:45;;;;;;;43.20;22.10;;;8.60;99.90;;;;;;5065717;28;20206;-73
2021/11/18 08:21:12;;;;;;;40.83;22.67;;;8.70;99.90;;;;;;5065015;28;20260;-74
2021/11/18 08:23:42;;;;;;;39.87;20.93;;;8.70;99.90;;;;;;5065086;28;20246;-69
2021/11/18 08:26:11;;;;;;;39.70;22.17;;;8.70;99.90;;;;;;5065711;28;20206;-69
2021/11/18 08:28:38;;;;;;;46.50;21.43;;;8.70;99.90;;;;;;5066073;28;20222;-69
2021/11/18 08:31:05;;;;;;;43.57;23.57;;;8.70;99.90;;;;;;5058716;28;20203;-69
2021/11/18 08:33:33;;;;;;;41.60;21.60;;;8.70;99.90;;;;;;5065790;28;20683;-69
2021/11/18 08:36:00;;;;;;;41.37;21.60;;;8.70;99.90;;;;;;5066091;28;20247;-69
2021/11/18 08:38:27;;;;;;;49.90;23.23;;;8.70;99.90;;;;;;5065840;28;20238;-69
2021/11/18 08:41:00;;;;;;;39.90;21.70;;;8.70;99.90;;;;;;5064736;28;20245;-69
2021/11/18 08:43:28;;;;;;;38.60;20.33;;;8.90;99.90;;;;;;5065770;28;20217;-69
2021/11/18 08:45:56;;;;;;;37.43;20.17;;;9.00;99.90;;;;;;5066410;28;20220;-69
2021/11/18 08:48:23;;;;;;;37.97;20.33;;;9.00;99.90;;;;;;5062313;28;20222;-69
2021/11/18 08:50:54;;;;;;;54.00;22.20;;;9.20;99.90;;;;;;5044872;28;20238;-69
2021/11/18 08:53:24;;;;;;;40.53;20.37;;;9.30;99.90;;;;;;5061905;28;20210;-69
2021/11/18 08:55:51;;;;;;;48.57;20.13;;;9.60;99.90;;;;;;5068749;28;20251;-70
2021/11/18 08:58:23;;;;;;;35.93;19.13;;;9.70;99.90;;;;;;5072655;28;20198;-69
2021/11/18 09:00:54;;;;;;;38.53;20.63;;;9.90;99.90;;;;;;5072983;28;20268;-69
2021/11/18 09:03:23;;;;;;;38.67;18.43;;;9.90;99.90;;;;;;5071836;28;20213;-69
2021/11/18 09:05:52;;;;;;;40.63;20.20;;;9.80;99.90;;;;;;5071261;28;20194;-69
2021/11/18 09:08:20;;;;;;;41.20;19.53;;;9.70;99.90;;;;;;5071639;28;20331;-69
2021/11/18 09:10:48;;;;;;;41.07;19.87;;;9.80;99.90;;;;;;5069643;28;20210;-69
2021/11/18 09:13:16;;;;;;;36.80;19.17;;;9.90;99.90;;;;;;5086021;28;20597;-69
2021/11/18 09:15:45;;;;;;;34.43;18.90;;;9.80;99.90;;;;;;5070573;28;20202;-69
2021/11/18 09:18:13;;;;;;;37.63;19.17;;;9.80;99.90;;;;;;5071346;28;20205;-69
2021/11/18 09:20:42;;;;;;;40.17;18.63;;;9.70;99.90;;;;;;5070614;28;20251;-69
2021/11/18 09:23:10;;;;;;;36.70;18.00;;;9.70;99.90;;;;;;5071362;28;20199;-69
2021/11/18 09:25:41;;;;;;;41.27;19.33;;;9.60;99.90;;;;;;5071421;28;20225;-69
2021/11/18 09:28:10;;;;;;;37.30;18.30;;;9.60;99.90;;;;;;5070939;28;20309;-68
2021/11/18 09:30:41;;;;;;;33.10;17.53;;;9.60;99.90;;;;;;5070768;28;20287;-69
2021/11/18 09:33:09;;;;;;;33.70;19.03;;;9.70;99.90;;;;;;5070408;28;20741;-69
2021/11/18 09:35:39;;;;;;;32.83;17.67;;;9.70;99.90;;;;;;5071407;28;20256;-69
2021/11/18 09:38:08;;;;;;;39.97;19.03;;;9.70;99.90;;;;;;5070852;28;20621;-69
2021/11/18 09:40:38;;;;;;;37.00;18.77;;;9.70;99.90;;;;;;5070075;28;20234;-69
2021/11/18 09:43:45;;;;;;;36.67;18.87;;;9.70;99.90;;;;;;5069398;28;20203;-69
2021/11/18 09:46:23;;;;;;;36.23;18.10;;;9.70;99.90;;;;;;5070080;28;20198;-69
2021/11/18 09:49:14;;;;;;;34.70;18.07;;;9.80;99.90;;;;;;5068348;28;20222;-69
2021/11/18 09:51:59;;;;;;;33.87;17.83;;;9.80;99.90;;;;;;5069961;28;20572;-70
2021/11/18 09:54:49;;;;;;;39.13;20.17;;;9.90;99.90;;;;;;5070923;28;20274;-69
2021/11/18 09:57:29;;;;;;;39.73;17.97;;;9.90;99.90;;;;;;5069089;28;20210;-69
2021/11/18 10:00:05;;;;;;;34.63;18.23;;;9.90;99.90;;;;;;5070181;28;20489;-70
2021/11/18 10:02:54;;;;;;;35.43;18.17;;;9.90;99.90;;;;;;5069585;28;20198;-70
2021/11/18 10:05:25;;;;;;;38.80;17.70;;;9.90;99.90;;;;;;5068531;28;20198;-71
2021/11/18 10:07:56;;;;;;;34.83;19.00;;;9.90;99.90;;;;;;5068747;28;20253;-69
2021/11/18 10:10:28;;;;;;;36.07;18.43;;;9.90;99.90;;;;;;5069955;28;20515;-69
2021/11/18 10:13:33;;;;;;;38.37;18.33;;;9.90;99.90;;;;;;5074592;28;20656;-69
2021/11/18 10:16:04;;;;;;;36.20;17.63;;;9.90;99.90;;;;;;5074468;28;20652;-70
2021/11/18 10:18:35;;;;;;;36.40;18.63;;;10.00;99.90;;;;;;5074209;28;20664;-69
2021/11/18 10:21:12;;;;;;;38.70;19.00;;;10.00;99.90;;;;;;5074382;28;20259;-69
2021/11/18 10:23:41;;;;;;;35.97;18.53;;;10.10;99.90;;;;;;5075105;28;20753;-69
2021/11/18 10:26:11;;;;;;;35.60;18.10;;;10.10;99.90;;;;;;5074197;28;20207;-69
2021/11/18 10:28:47;;;;;;;37.00;18.33;;;10.10;99.90;;;;;;5073718;28;20229;-69
2021/11/18 10:31:22;;;;;;;38.20;18.67;;;10.10;99.90;;;;;;5074529;28;20646;-69
2021/11/18 10:33:58;;;;;;;39.07;20.33;;;10.10;99.90;;;;;;5074704;28;20205;-70
2021/11/18 10:36:52;;;;;;;38.23;18.57;;;10.20;99.90;;;;;;5073884;28;20194;-69
2021/11/18 10:39:26;;;;;;;36.90;18.17;;;10.30;99.90;;;;;;5073364;28;20206;-69
2021/11/18 10:41:57;;;;;;;37.33;18.20;;;10.40;99.90;;;;;;5073640;28;20243;-69
2021/11/18 10:44:28;;;;;;;37.73;17.87;;;10.50;99.90;;;;;;5074533;28;20207;-69
2021/11/18 10:47:03;;;;;;;40.20;18.07;;;10.50;99.90;;;;;;5074573;28;20246;-69
2021/11/18 10:49:34;;;;;;;35.40;18.03;;;10.50;99.90;;;;;;5074476;28;20267;-69
2021/11/18 10:52:06;;;;;;;32.57;18.07;;;10.50;99.90;;;;;;5074445;28;20207;-69
2021/11/18 10:54:44;;;;;;;35.27;18.73;;;10.50;99.90;;;;;;5073429;28;20206;-69
2021/11/18 10:57:17;;;;;;;33.10;16.73;;;10.60;99.90;;;;;;5074393;28;20198;-69
2021/11/18 10:59:46;;;;;;;32.67;18.40;;;10.60;99.90;;;;;;5074442;28;20260;-70
2021/11/18 11:02:25;;;;;;;34.13;17.50;;;10.70;99.90;;;;;;5073525;28;20251;-69
2021/11/18 11:04:56;;;;;;;35.20;17.70;;;10.60;99.90;;;;;;5074291;28;20202;-70
2021/11/18 11:07:43;;;;;;;35.20;17.53;;;10.60;99.90;;;;;;5073445;28;20195;-69
2021/11/18 11:10:13;;;;;;;38.17;16.90;;;10.70;99.90;;;;;;5073287;28;20706;-69
2021/11/18 11:12:48;;;;;;;35.93;17.83;;;10.80;99.90;;;;;;5073783;28;20206;-69
2021/11/18 11:16:01;;;;;;;34.63;18.27;;;11.00;99.90;;;;;;5073770;28;20271;-69
2021/11/18 11:18:40;;;;;;;31.57;16.20;;;11.10;99.90;;;;;;5074169;28;20206;-69
2021/11/18 11:21:37;;;;;;;34.70;17.43;;;11.20;99.90;;;;;;5072683;28;20202;-69
2021/11/18 11:24:30;;;;;;;28.80;16.97;;;11.40;99.90;;;;;;5053438;28;20207;-70
2021/11/18 11:27:24;;;;;;;26.70;15.63;;;11.50;99.90;;;;;;5051926;28;20210;-70
2021/11/18 11:29:52;;;;;;;30.93;15.23;;;11.40;99.90;;;;;;5064183;28;20222;-70
2021/11/18 11:32:26;;;;;;;31.63;16.30;;;11.30;99.90;;;;;;5073511;28;20214;-70
2021/11/18 11:35:25;;;;;;;29.67;15.83;;;11.30;99.90;;;;;;5073817;28;20736;-70
2021/11/18 11:38:24;;;;;;;27.80;16.73;;;11.30;99.90;;;;;;5058241;28;20206;-70
2021/11/18 11:41:05;;;;;;;31.93;16.43;;;11.30;99.90;;;;;;5071315;28;20299;-70
2021/11/18 11:43:43;;;;;;;34.50;15.53;;;11.30;99.90;;;;;;5073240;28;20202;-70
2021/11/18 11:46:26;;;;;;;29.57;15.87;;;11.60;99.90;;;;;;5053634;28;20199;-70
2021/11/18 11:49:08;;;;;;;28.80;15.50;;;11.40;99.90;;;;;;5069920;28;20222;-69
2021/11/18 11:51:48;;;;;;;32.93;15.13;;;11.40;99.90;;;;;;5072825;28;20299;-70
2021/11/18 11:54:39;;;;;;;29.27;15.03;;;11.30;99.90;;;;;;5071917;28;20198;-70
2021/11/18 11:57:20;;;;;;;27.70;13.80;;;11.20;99.90;;;;;;5070670;28;20264;-69
2021/11/18 11:59:54;;;;;;;25.47;12.57;;;11.20;99.90;;;;;;5071921;28;20289;-69
2021/11/18 12:02:31;;;;;;;22.40;11.83;;;11.20;99.90;;;;;;5071896;28;20198;-69
2021/11/18 12:05:02;;;;;;;25.50;11.63;;;11.20;99.90;;;;;;5072718;28;20194;-69
2021/11/18 12:07:36;;;;;;;31.03;11.87;;;11.20;99.90;;;;;;5071729;28;20711;-69
2021/11/18 12:10:07;;;;;;;25.10;12.27;;;11.30;99.90;;;;;;5071594;28;20222;-70
2021/11/18 12:12:39;;;;;;;27.33;11.77;;;11.30;99.90;;;;;;5071234;28;20230;-69
2021/11/18 12:15:09;;;;;;;25.77;11.00;;;11.30;99.90;;;;;;5071042;28;20657;-70
2021/11/18 12:17:41;;;;;;;27.23;11.53;;;11.20;99.90;;;;;;5071253;28;20733;-70
2021/11/18 12:20:12;;;;;;;22.43;11.13;;;11.30;99.90;;;;;;5072083;28;20199;-70
2021/11/18 12:22:57;;;;;;;19.53;9.00;;;11.30;99.90;;;;;;5069941;28;20210;-69
2021/11/18 12:25:35;;;;;;;22.93;10.17;;;11.40;99.90;;;;;;5071967;28;20633;-70
2021/11/18 12:28:17;;;;;;;20.10;10.23;;;11.50;99.90;;;;;;5071319;28;20202;-69
2021/11/18 12:31:13;;;;;;;19.73;10.23;;;12.40;99.90;;;;;;5070943;28;20310;-69
2021/11/18 12:33:50;;;;;;;21.73;8.17;;;12.60;99.90;;;;;;5071257;28;20211;-70
2021/11/18 12:36:21;;;;;;;21.03;9.33;;;12.70;99.90;;;;;;5068377;28;20202;-70
2021/11/18 12:38:51;;;;;;;19.90;8.87;;;12.50;99.90;;;;;;5071725;28;20297;-70
2021/11/18 12:41:49;;;;;;;20.30;7.87;;;12.40;99.90;;;;;;5070953;28;20252;-70
2021/11/18 12:44:30;;;;;;;18.87;7.60;;;12.20;99.90;;;;;;5068548;28;20264;-70
2021/11/18 12:47:02;;;;;;;20.73;8.60;;;11.90;99.90;;;;;;5068399;28;20275;-70
2021/11/18 12:50:01;;;;;;;21.07;7.63;;;12.00;99.90;;;;;;5067465;28;20627;-70
2021/11/18 12:52:31;;;;;;;21.17;8.80;;;11.80;99.90;;;;;;5066052;28;20227;-71
2021/11/18 12:55:43;;;;;;;19.17;7.47;;;11.60;99.90;;;;;;5068781;28;20210;-70